Time;durP1;ratioP1;P1;durP2;ratioP2;P2;SDS_P1;SDS_P2;PMS_P1;PMS_P2;Temp;Humidity;BMP_temperature;BMP_pressure;BME280_temperature;BME280_humidity;BME280_pressure;Samples;Min_cycle;Max_cycle;Signal;HPM_P1;HPM_P2
2023/02/13 09:15:03;;;;;;;15.87;12.53;;;;;;;;;;5133545;27;20305;-78
2023/02/13 09:17:29;;;;;;;19.97;12.30;;;0.90;99.90;;;;;;5131898;28;20267;-78
2023/02/13 09:19:55;;;;;;;20.00;12.97;;;1.00;99.90;;;;;;5132930;27;20479;-78
2023/02/13 09:27:09;;;;;;;15.83;10.67;;;1.00;99.90;;;;;;5133770;27;20271;-78
2023/02/13 09:29:51;;;;;;;16.83;10.87;;;0.90;99.90;;;;;;5133619;27;20277;-78
2023/02/13 09:32:18;;;;;;;15.97;11.37;;;1.10;99.90;;;;;;5114412;28;20174;-78
2023/02/13 09:39:56;;;;;;;16.87;11.30;;;1.40;99.90;;;;;;5133312;27;20263;-78
2023/02/13 09:43:42;;;;;;;16.20;11.90;;;1.60;99.90;;;;;;5134375;27;20740;-79
2023/02/13 09:46:17;;;;;;;15.53;10.37;;;1.60;99.90;;;;;;5133750;28;20400;-79
2023/02/13 09:48:48;;;;;;;17.03;11.93;;;1.80;99.90;;;;;;5134992;27;20151;-79
2023/02/13 09:51:19;;;;;;;15.10;11.20;;;1.90;99.90;;;;;;5134698;27;20170;-79
2023/02/13 09:53:59;;;;;;;18.73;12.60;;;1.90;99.90;;;;;;5134264;27;20428;-79
2023/02/13 09:56:48;;;;;;;15.83;12.20;;;1.90;99.90;;;;;;5134795;28;20172;-79
2023/02/13 09:59:55;;;;;;;16.03;11.70;;;1.90;99.90;;;;;;5135177;27;20186;-79
2023/02/13 10:02:39;;;;;;;20.83;12.27;;;2.00;99.90;;;;;;5123610;28;20206;-79
2023/02/13 10:05:22;;;;;;;18.17;11.23;;;2.30;99.90;;;;;;5134969;28;20572;-78
2023/02/13 10:08:23;;;;;;;16.60;12.23;;;2.60;99.90;;;;;;5131340;28;20168;-79
2023/02/13 10:11:00;;;;;;;22.57;12.50;;;2.70;99.90;;;;;;5132078;27;20171;-78
2023/02/13 10:13:40;;;;;;;17.50;11.60;;;3.00;99.90;;;;;;5130279;28;20171;-78
2023/02/13 10:16:16;;;;;;;15.33;10.83;;;3.20;99.90;;;;;;5131299;27;20170;-79
2023/02/13 10:18:54;;;;;;;13.47;10.50;;;3.60;99.90;;;;;;5131040;27;20579;-79
2023/02/13 10:21:25;;;;;;;16.10;10.60;;;4.20;99.90;;;;;;5132612;27;20261;-79
2023/02/13 10:24:01;;;;;;;16.50;10.93;;;4.70;99.90;;;;;;5131894;28;20287;-80
2023/02/13 10:26:44;;;;;;;16.57;10.77;;;4.90;99.90;;;;;;5133243;27;20202;-79
2023/02/13 10:32:31;;;;;;;15.93;11.07;;;4.60;99.90;;;;;;5133305;28;20224;-79
2023/02/13 10:34:59;;;;;;;13.20;9.97;;;4.60;99.90;;;;;;5132904;27;20660;-79
2023/02/13 10:37:28;;;;;;;16.10;11.00;;;5.30;99.90;;;;;;5132665;27;20182;-79
2023/02/13 10:39:53;;;;;;;15.63;10.73;;;5.80;99.90;;;;;;5131111;28;20175;-79
2023/02/13 10:42:32;;;;;;;15.07;11.60;;;6.30;99.90;;;;;;5132445;27;20213;-79
2023/02/13 10:45:17;;;;;;;14.13;9.97;;;6.50;99.90;;;;;;5131849;28;20191;-79
2023/02/13 10:48:10;;;;;;;14.70;11.00;;;7.00;99.90;;;;;;5132733;28;20155;-79
2023/02/13 10:50:48;;;;;;;12.73;10.40;;;7.20;99.90;;;;;;5132497;27;20167;-79
2023/02/13 10:53:22;;;;;;;15.87;10.13;;;7.70;99.90;;;;;;5127405;27;20152;-80
2023/02/13 10:56:09;;;;;;;13.43;10.70;;;7.20;99.90;;;;;;5118669;28;20175;-80
2023/02/13 10:59:11;;;;;;;16.27;10.93;;;7.10;99.90;;;;;;5117048;28;20159;-79
2023/02/13 11:01:49;;;;;;;14.10;10.47;;;7.60;99.90;;;;;;5119040;28;20191;-81
2023/02/13 11:04:18;;;;;;;14.97;11.73;;;7.90;99.90;;;;;;5118718;28;20192;-80
2023/02/13 11:07:01;;;;;;;12.07;10.53;;;8.10;99.90;;;;;;5117328;28;20536;-79
2023/02/13 11:09:28;;;;;;;12.30;10.47;;;8.50;99.90;;;;;;5119204;28;20158;-80
2023/02/13 11:11:54;;;;;;;12.57;10.87;;;8.50;99.90;;;;;;5117078;28;20182;-80
2023/02/13 11:14:24;;;;;;;11.27;9.87;;;8.60;99.90;;;;;;5117779;28;20221;-79
2023/02/13 11:17:02;;;;;;;16.37;11.30;;;8.60;99.90;;;;;;5118285;27;20261;-79
2023/02/13 11:19:36;;;;;;;18.00;10.60;;;8.80;99.90;;;;;;5117026;28;20182;-79
2023/02/13 11:22:10;;;;;;;11.97;10.53;;;9.20;99.90;;;;;;5118283;28;20542;-79
2023/02/13 11:24:38;;;;;;;13.57;10.80;;;9.20;99.90;;;;;;5117039;28;20196;-80
2023/02/13 11:27:07;;;;;;;12.20;10.90;;;9.10;99.90;;;;;;5118380;28;20171;-80
2023/02/13 11:29:35;;;;;;;13.13;11.27;;;8.70;99.90;;;;;;5117015;28;20656;-80
2023/02/13 11:32:19;;;;;;;15.53;11.03;;;8.60;99.90;;;;;;5120297;28;20183;-80
2023/02/13 11:34:45;;;;;;;12.17;10.87;;;8.80;99.90;;;;;;5117343;28;20223;-80
2023/02/13 11:37:11;;;;;;;12.27;10.77;;;9.10;99.90;;;;;;5117160;28;20581;-80
2023/02/13 11:39:38;;;;;;;13.43;10.43;;;9.30;99.90;;;;;;5116994;28;20180;-80
2023/02/13 11:42:13;;;;;;;14.10;11.47;;;8.90;99.90;;;;;;5117702;28;20278;-80
2023/02/13 11:44:41;;;;;;;13.83;11.30;;;8.40;99.90;;;;;;5118318;28;20193;-80
2023/02/13 11:47:06;;;;;;;12.50;10.97;;;8.20;99.90;;;;;;5116790;28;20171;-80
2023/02/13 11:49:36;;;;;;;14.53;11.07;;;8.40;99.90;;;;;;5118875;28;20315;-80
2023/02/13 11:52:05;;;;;;;15.80;10.23;;;8.80;99.90;;;;;;5118573;28;20629;-80
2023/02/13 11:54:38;;;;;;;12.60;10.87;;;9.00;99.90;;;;;;5117916;28;20196;-80
2023/02/13 11:57:16;;;;;;;12.13;10.83;;;8.90;99.90;;;;;;5119578;28;20160;-81
2023/02/13 11:59:44;;;;;;;11.97;10.73;;;8.80;99.90;;;;;;5117741;28;20172;-80
2023/02/13 12:02:15;;;;;;;12.53;10.73;;;8.70;99.90;;;;;;5117239;28;20201;-80
2023/02/13 12:04:41;;;;;;;14.27;10.40;;;9.50;99.90;;;;;;5117219;28;20725;-81
2023/02/13 12:07:21;;;;;;;12.50;10.73;;;10.40;99.90;;;;;;5117631;28;20657;-81
2023/02/13 12:09:58;;;;;;;10.83;9.73;;;11.10;99.90;;;;;;5117851;28;20174;-80
2023/02/13 12:12:46;;;;;;;12.50;10.00;;;11.40;99.90;;;;;;5116180;28;20159;-81
2023/02/13 12:15:22;;;;;;;10.87;9.77;;;11.60;99.90;;;;;;5116899;28;20192;-81
2023/02/13 12:18:05;;;;;;;11.30;9.77;;;11.90;99.90;;;;;;5117235;28;20179;-81
2023/02/13 12:21:08;;;;;;;11.37;9.87;;;12.00;99.90;;;;;;5116818;28;20580;-81
2023/02/13 12:24:08;;;;;;;11.70;9.03;;;12.10;99.90;;;;;;5096362;27;20195;-81
2023/02/13 12:27:04;;;;;;;12.00;9.73;;;12.40;99.90;;;;;;5108523;28;20187;-81
2023/02/13 12:30:07;;;;;;;11.57;10.37;;;12.10;99.90;;;;;;5116372;28;20171;-81
2023/02/13 12:32:48;;;;;;;11.93;10.00;;;12.00;99.90;;;;;;5116766;28;20171;-81
2023/02/13 12:35:56;;;;;;;11.90;10.60;;;12.00;99.90;;;;;;5116966;28;20199;-81
2023/02/13 12:38:30;;;;;;;11.07;9.97;;;12.10;99.90;;;;;;5075157;28;20185;-81
2023/02/13 12:41:51;;;;;;;11.67;9.73;;;12.40;99.90;;;;;;5112077;28;20263;-81
2023/02/13 12:44:37;;;;;;;11.13;9.70;;;12.90;99.90;;;;;;5095103;28;20223;-81
2023/02/13 12:47:34;;;;;;;12.40;11.10;;;13.20;99.90;;;;;;5096795;28;20190;-81
2023/02/13 12:50:27;;;;;;;18.50;14.30;;;12.70;99.90;;;;;;5118079;28;20175;-81
2023/02/13 12:53:14;;;;;;;13.13;11.13;;;12.80;99.90;;;;;;5116764;28;20267;-81
2023/02/13 12:55:51;;;;;;;12.73;10.50;;;12.80;99.80;;;;;;5117480;28;20203;-80
2023/02/13 12:59:07;;;;;;;12.87;9.73;;;13.30;99.70;;;;;;5117390;28;20166;-81
2023/02/13 13:01:58;;;;;;;10.63;9.60;;;13.40;98.90;;;;;;5089815;28;20212;-81
2023/02/13 13:04:52;;;;;;;11.23;9.37;;;13.40;98.20;;;;;;5114880;28;20744;-81
2023/02/13 13:07:21;;;;;;;12.77;10.03;;;13.40;98.00;;;;;;5114796;28;20216;-81
2023/02/13 13:10:10;;;;;;;11.07;9.87;;;13.40;97.10;;;;;;5115479;28;20169;-81
2023/02/13 13:13:08;;;;;;;10.40;9.30;;;13.70;97.60;;;;;;5117125;28;20544;-81
2023/02/13 13:15:54;;;;;;;12.53;10.80;;;14.10;96.20;;;;;;5113985;28;20212;-80
2023/02/13 13:18:22;;;;;;;10.83;9.50;;;14.00;95.20;;;;;;5120552;28;20203;-80
2023/02/13 13:20:54;;;;;;;14.37;11.00;;;13.70;95.20;;;;;;5115111;28;20168;-81
2023/02/13 13:23:45;;;;;;;10.70;9.63;;;13.40;96.60;;;;;;5114649;28;20207;-80
2023/02/13 13:26:22;;;;;;;13.73;9.47;;;13.90;95.90;;;;;;5116442;28;20618;-80
2023/02/13 13:28:55;;;;;;;11.00;9.80;;;14.30;94.60;;;;;;5116397;28;20147;-80
2023/02/13 13:31:25;;;;;;;9.87;8.60;;;14.40;93.70;;;;;;5116136;28;20156;-80
2023/02/13 13:33:51;;;;;;;10.57;8.40;;;14.80;93.40;;;;;;5114941;28;20283;-80
2023/02/13 13:36:39;;;;;;;10.10;9.00;;;15.20;92.20;;;;;;5115891;28;20696;-80
2023/02/13 13:39:21;;;;;;;10.53;9.10;;;14.90;91.40;;;;;;5116330;28;20162;-80
2023/02/13 13:42:08;;;;;;;9.70;8.70;;;14.50;91.80;;;;;;5115528;28;20231;-81
2023/02/13 13:45:09;;;;;;;10.17;8.90;;;13.90;92.70;;;;;;5114223;28;20269;-81
2023/02/13 13:47:40;;;;;;;11.83;9.00;;;11.30;96.20;;;;;;5115963;28;20172;-80
2023/02/13 13:50:27;;;;;;;9.27;8.30;;;9.50;99.90;;;;;;5114963;28;20171;-81
2023/02/13 13:53:10;;;;;;;12.17;10.10;;;8.30;99.90;;;;;;5114716;28;20197;-80
2023/02/13 13:56:09;;;;;;;10.27;9.13;;;9.00;99.90;;;;;;5116373;28;20664;-81
2023/02/13 13:58:42;;;;;;;12.80;9.20;;;11.40;99.90;;;;;;5116509;28;20159;-81
2023/02/13 14:01:18;;;;;;;13.10;9.80;;;12.30;99.90;;;;;;5114786;28;20683;-80
2023/02/13 14:03:47;;;;;;;12.27;10.10;;;12.40;99.90;;;;;;5114553;28;20206;-80
2023/02/13 14:06:17;;;;;;;11.80;10.00;;;12.60;99.90;;;;;;5114544;28;20176;-81
2023/02/13 14:08:43;;;;;;;11.83;9.60;;;12.60;99.20;;;;;;5114619;28;20262;-80
2023/02/13 14:11:35;;;;;;;12.83;10.33;;;13.10;99.10;;;;;;5114558;28;20175;-81
2023/02/13 14:14:01;;;;;;;14.23;10.70;;;13.70;96.80;;;;;;5119315;28;20195;-81
2023/02/13 14:16:43;;;;;;;13.47;10.33;;;13.10;96.80;;;;;;5124819;28;20179;-80
2023/02/13 14:19:45;;;;;;;11.93;10.63;;;12.70;97.40;;;;;;5115793;28;20539;-81
2023/02/13 14:22:30;;;;;;;13.17;11.10;;;10.90;99.80;;;;;;5082139;28;20220;-81
2023/02/13 14:25:02;;;;;;;14.77;10.47;;;9.30;99.90;;;;;;5115058;28;20197;-81
2023/02/13 14:27:38;;;;;;;13.17;10.43;;;7.80;99.90;;;;;;5114950;28;20269;-80
2023/02/13 14:30:27;;;;;;;17.97;11.70;;;7.00;99.90;;;;;;5118267;28;20687;-80
2023/02/13 14:32:54;;;;;;;16.67;11.83;;;6.30;99.90;;;;;;5110694;28;20543;-80
2023/02/13 14:35:28;;;;;;;16.27;12.20;;;6.10;99.90;;;;;;5118420;28;20602;-80
2023/02/13 14:37:59;;;;;;;17.97;11.73;;;6.10;99.90;;;;;;5119836;28;20163;-80
2023/02/13 14:40:52;;;;;;;17.13;11.47;;;6.00;99.90;;;;;;5120023;28;20164;-80
2023/02/13 14:43:23;;;;;;;20.43;12.47;;;5.70;99.90;;;;;;5117476;27;20440;-80
2023/02/13 14:46:00;;;;;;;19.70;12.70;;;5.60;99.90;;;;;;5119981;28;20245;-80
2023/02/13 14:48:40;;;;;;;18.00;13.10;;;5.50;99.90;;;;;;5118650;28;20300;-80
2023/02/13 14:51:13;;;;;;;23.03;14.03;;;5.30;99.90;;;;;;5119880;28;20216;-80
2023/02/13 14:53:53;;;;;;;28.67;18.57;;;5.40;99.90;;;;;;5117973;28;20193;-80
2023/02/13 14:56:21;;;;;;;22.83;15.63;;;5.20;99.90;;;;;;5120144;28;20693;-80
2023/02/13 14:58:55;;;;;;;23.87;15.77;;;5.10;99.90;;;;;;5122100;28;20172;-79
2023/02/13 15:01:25;;;;;;;25.03;16.70;;;4.90;99.90;;;;;;5119368;28;20152;-80
2023/02/13 15:03:58;;;;;;;20.30;14.40;;;4.80;99.90;;;;;;5118431;28;20241;-80
2023/02/13 15:06:32;;;;;;;24.27;15.33;;;4.70;99.90;;;;;;5119731;28;20164;-81
2023/02/13 15:09:01;;;;;;;23.57;15.73;;;4.60;99.90;;;;;;5119511;28;20190;-80
2023/02/13 15:11:53;;;;;;;22.80;14.73;;;4.50;99.90;;;;;;5118671;28;20187;-81
2023/02/13 15:14:34;;;;;;;25.23;15.30;;;4.50;99.90;;;;;;5118506;28;20301;-81
2023/02/13 15:17:10;;;;;;;22.13;15.30;;;4.20;99.90;;;;;;5119288;28;20679;-81
2023/02/13 15:19:42;;;;;;;25.10;15.97;;;4.10;99.90;;;;;;5119984;28;20191;-81
2023/02/13 15:22:18;;;;;;;25.10;15.20;;;4.00;99.90;;;;;;5120844;28;20266;-81
2023/02/13 15:24:46;;;;;;;22.07;13.63;;;4.00;99.90;;;;;;5119318;28;20202;-81
2023/02/13 15:27:27;;;;;;;20.30;14.27;;;4.00;99.90;;;;;;5121359;28;20478;-81
2023/02/13 15:29:55;;;;;;;20.50;13.63;;;3.90;99.90;;;;;;5119205;28;20526;-81
2023/02/13 15:32:31;;;;;;;21.13;14.20;;;3.80;99.90;;;;;;5119586;28;20667;-80
2023/02/13 15:34:56;;;;;;;20.00;13.17;;;3.70;99.90;;;;;;5120261;28;20669;-81
2023/02/13 15:37:26;;;;;;;20.23;13.50;;;3.70;99.90;;;;;;5120916;28;20236;-81
2023/02/13 15:39:52;;;;;;;24.20;13.97;;;3.70;99.90;;;;;;5119218;28;20251;-81
2023/02/13 15:42:18;;;;;;;19.27;12.97;;;3.80;99.90;;;;;;5120600;28;20275;-82
2023/02/13 15:44:46;;;;;;;22.73;12.90;;;3.70;99.90;;;;;;5118564;28;20247;-82
